createdAt,value
2018-11-20T00:00:39.974Z,0
2018-11-20T00:01:40.208Z,0
2018-11-20T00:02:40.191Z,0
2018-11-20T00:03:39.942Z,0
2018-11-20T00:04:39.635Z,0
2018-11-20T00:05:39.622Z,0
2018-11-20T00:06:40.112Z,0
2018-11-20T00:07:40.102Z,0
2018-11-20T00:08:39.828Z,0
2018-11-20T00:09:40.137Z,0
2018-11-20T00:10:39.525Z,0
2018-11-20T00:11:39.766Z,0
2018-11-20T00:12:40.025Z,0
2018-11-20T00:13:39.974Z,0
2018-11-20T00:14:39.706Z,0
2018-11-20T00:15:39.679Z,0
2018-11-20T00:16:39.919Z,0
2018-11-20T00:17:39.644Z,0
2018-11-20T00:18:39.622Z,0
2018-11-20T00:19:39.606Z,0
2018-11-20T00:20:39.586Z,0
2018-11-20T00:21:39.311Z,0
2018-11-20T00:22:40.126Z,0
2018-11-20T00:23:39.526Z,0
2018-11-20T00:24:39.523Z,0
2018-11-20T00:25:39.533Z,0
2018-11-20T00:26:39.728Z,0
2018-11-20T00:27:39.454Z,0
2018-11-20T00:28:39.426Z,0
2018-11-20T00:29:39.673Z,0
2018-11-20T00:30:39.447Z,0
2018-11-20T00:31:39.739Z,0
2018-11-20T00:32:39.618Z,0
2018-11-20T00:33:39.583Z,0
2018-11-20T00:34:39.565Z,0
2018-11-20T00:35:39.039Z,0
2018-11-20T00:36:39.272Z,0
2018-11-20T00:37:39.262Z,0
2018-11-20T00:38:39.503Z,0
2018-11-20T00:39:39.530Z,0
2018-11-20T00:40:39.544Z,0
2018-11-20T00:41:39.034Z,0
2018-11-20T00:42:39.536Z,0
2018-11-20T00:43:39.138Z,0
2018-11-20T00:44:39.389Z,0
2018-11-20T00:45:39.358Z,0
2018-11-20T00:46:39.104Z,0
2018-11-20T00:47:39.091Z,0
2018-11-20T00:48:39.044Z,0
2018-11-20T00:49:38.511Z,0
2018-11-20T00:50:39.022Z,0
2018-11-20T00:51:38.993Z,0
2018-11-20T00:52:38.973Z,0
2018-11-20T00:53:38.690Z,0
2018-11-20T00:54:39.195Z,0
2018-11-20T00:55:39.166Z,0
2018-11-20T00:56:38.636Z,0
2018-11-20T00:57:38.867Z,0
2018-11-20T00:58:38.591Z,0
2018-11-20T00:59:38.828Z,0
2018-11-20T01:00:39.073Z,0
2018-11-20T01:01:38.803Z,0
2018-11-20T01:02:38.648Z,0
2018-11-20T01:03:39.061Z,0
2018-11-20T01:04:38.741Z,0
2018-11-20T01:05:39.197Z,0
2018-11-20T01:06:38.697Z,0
2018-11-20T01:07:38.430Z,0
2018-11-20T01:08:38.926Z,0
2018-11-20T01:09:38.654Z,0
2018-11-20T01:10:38.362Z,0
2018-11-20T01:11:38.609Z,0
2018-11-20T01:12:38.332Z,0
2018-11-20T01:13:38.051Z,0
2018-11-20T01:14:38.292Z,0
2018-11-20T01:15:38.788Z,0
2018-11-20T01:16:38.786Z,0
2018-11-20T01:17:38.491Z,0
2018-11-20T01:18:38.732Z,0
2018-11-20T01:19:38.713Z,0
2018-11-20T01:20:38.732Z,0
2018-11-20T01:21:38.406Z,0
2018-11-20T01:22:38.137Z,0
2018-11-20T01:23:38.374Z,0
2018-11-20T01:24:38.616Z,0
2018-11-20T01:25:38.589Z,0
2018-11-20T01:26:38.063Z,0
2018-11-20T01:27:38.032Z,0
2018-11-20T01:28:38.276Z,0
2018-11-20T01:29:38.262Z,0
2018-11-20T01:30:38.503Z,0
2018-11-20T01:31:38.443Z,0
2018-11-20T01:32:38.519Z,0
2018-11-20T01:33:38.438Z,0
2018-11-20T01:34:38.417Z,0
2018-11-20T01:35:38.400Z,0
2018-11-20T01:36:38.376Z,0
2018-11-20T01:37:38.128Z,0
2018-11-20T01:38:38.089Z,0
2018-11-20T01:39:37.804Z,0
2018-11-20T01:40:38.300Z,0
2018-11-20T01:41:38.887Z,0
2018-11-20T01:42:38.014Z,0
2018-11-20T01:43:38.238Z,0
2018-11-20T01:44:37.716Z,0
2018-11-20T01:45:37.947Z,0
2018-11-20T01:46:37.672Z,0
2018-11-20T01:47:37.133Z,0
2018-11-20T01:48:37.883Z,0
2018-11-20T01:49:38.131Z,0
2018-11-20T01:50:38.016Z,0
2018-11-20T01:51:37.878Z,0
2018-11-20T01:52:38.066Z,0
2018-11-20T01:53:37.785Z,0
2018-11-20T01:54:38.083Z,0
2018-11-20T01:55:37.491Z,0
2018-11-20T01:56:37.994Z,0
2018-11-20T01:57:37.960Z,0
2018-11-20T01:58:37.947Z,0
2018-11-20T01:59:37.929Z,0
2018-11-20T02:00:37.910Z,0
2018-11-20T02:01:37.637Z,0
2018-11-20T02:02:37.612Z,0
2018-11-20T02:03:37.600Z,0
2018-11-20T02:04:37.320Z,0
2018-11-20T02:05:37.557Z,0
2018-11-20T02:06:37.800Z,0
2018-11-20T02:07:37.772Z,0
2018-11-20T02:08:37.245Z,0
2018-11-20T02:09:37.738Z,0
2018-11-20T02:10:37.747Z,0
2018-11-20T02:11:37.437Z,0
2018-11-20T02:12:37.679Z,0
2018-11-20T02:13:37.141Z,0
2018-11-20T02:14:37.387Z,0
2018-11-20T02:15:37.362Z,0
2018-11-20T02:16:37.593Z,0
2018-11-20T02:17:37.589Z,0
2018-11-20T02:18:37.049Z,0
2018-11-20T02:19:37.285Z,0
2018-11-20T02:20:37.530Z,0
2018-11-20T02:21:37.512Z,0
2018-11-20T02:22:36.970Z,0
2018-11-20T02:23:36.952Z,0
2018-11-20T02:24:36.925Z,0
2018-11-20T02:25:36.907Z,0
2018-11-20T02:26:37.404Z,0
2018-11-20T02:27:37.391Z,0
2018-11-20T02:28:37.105Z,0
2018-11-20T02:29:37.088Z,0
2018-11-20T02:30:36.553Z,0
2018-11-20T02:31:37.303Z,0
2018-11-20T02:32:37.038Z,0
2018-11-20T02:33:37.010Z,0
2018-11-20T02:34:37.255Z,0
2018-11-20T02:35:36.711Z,0
2018-11-20T02:36:36.952Z,0
2018-11-20T02:37:36.939Z,0
2018-11-20T02:38:37.167Z,0
2018-11-20T02:39:37.148Z,0
2018-11-20T02:40:36.618Z,0
2018-11-20T02:41:37.116Z,0
2018-11-20T02:42:36.831Z,0
2018-11-20T02:43:36.815Z,0
2018-11-20T02:44:37.056Z,0
2018-11-20T02:45:36.787Z,0
2018-11-20T02:46:36.763Z,0
2018-11-20T02:47:37.618Z,0
2018-11-20T02:48:37.622Z,0
2018-11-20T02:49:36.952Z,0
2018-11-20T02:50:36.941Z,0
2018-11-20T02:51:37.643Z,0
2018-11-20T02:52:36.644Z,0
2018-11-20T02:53:36.637Z,0
2018-11-20T02:54:36.869Z,0
2018-11-20T02:55:36.583Z,0
2018-11-20T02:56:36.826Z,0
2018-11-20T02:57:36.292Z,0
2018-11-20T02:58:36.009Z,0
2018-11-20T02:59:36.256Z,0
2018-11-20T03:00:36.758Z,0
2018-11-20T03:01:36.721Z,0
2018-11-20T03:02:36.454Z,0
2018-11-20T03:03:36.558Z,0
2018-11-20T03:04:36.417Z,0
2018-11-20T03:05:36.131Z,0
2018-11-20T03:06:36.373Z,0
2018-11-20T03:07:36.351Z,0
2018-11-20T03:08:36.597Z,0
2018-11-20T03:09:36.578Z,0
2018-11-20T03:10:36.299Z,0
2018-11-20T03:11:36.535Z,0
2018-11-20T03:12:36.521Z,0
2018-11-20T03:13:36.502Z,0
2018-11-20T03:14:36.486Z,0
2018-11-20T03:15:35.687Z,0
2018-11-20T03:16:36.452Z,0
2018-11-20T03:17:36.163Z,0
2018-11-20T03:18:36.418Z,0
2018-11-20T03:19:36.388Z,0
2018-11-20T03:20:36.368Z,0
2018-11-20T03:21:36.350Z,0
2018-11-20T03:22:36.069Z,0
2018-11-20T03:23:36.318Z,0
2018-11-20T03:24:36.027Z,0
2018-11-20T03:25:36.268Z,0
2018-11-20T03:26:36.252Z,0
2018-11-20T03:27:36.240Z,0
2018-11-20T03:28:35.957Z,0
2018-11-20T03:29:35.947Z,0
2018-11-20T03:30:36.183Z,0
2018-11-20T03:31:35.896Z,0
2018-11-20T03:32:35.922Z,0
2018-11-20T03:33:36.117Z,0
2018-11-20T03:34:36.135Z,0
2018-11-20T03:35:36.077Z,0
2018-11-20T03:36:36.070Z,0
2018-11-20T03:37:36.089Z,0
2018-11-20T03:38:36.019Z,0
2018-11-20T03:39:35.743Z,0
2018-11-20T03:40:36.000Z,0
2018-11-20T03:41:35.707Z,0
2018-11-20T03:42:35.687Z,0
2018-11-20T03:43:35.418Z,0
2018-11-20T03:44:35.648Z,0
2018-11-20T03:45:35.633Z,0
2018-11-20T03:46:35.869Z,0
2018-11-20T03:47:35.636Z,0
2018-11-20T03:48:35.836Z,0
2018-11-20T03:49:35.833Z,0
2018-11-20T03:50:35.810Z,0
2018-11-20T03:51:35.525Z,0
2018-11-20T03:52:35.509Z,0
2018-11-20T03:53:35.734Z,0
2018-11-20T03:54:35.455Z,0
2018-11-20T03:55:35.441Z,0
2018-11-20T03:56:35.425Z,0
2018-11-20T03:57:35.713Z,0
2018-11-20T03:58:35.634Z,0
2018-11-20T03:59:35.622Z,0
2018-11-20T04:00:35.362Z,0
2018-11-20T04:01:35.595Z,0
2018-11-20T04:02:35.565Z,0
2018-11-20T04:03:35.580Z,0
2018-11-20T04:04:35.530Z,0
2018-11-20T04:05:35.510Z,0
2018-11-20T04:06:35.495Z,0
2018-11-20T04:07:35.476Z,0
2018-11-20T04:08:35.452Z,0
2018-11-20T04:09:35.432Z,0
2018-11-20T04:10:35.153Z,0
2018-11-20T04:11:35.396Z,0
2018-11-20T04:12:35.120Z,0
2018-11-20T04:13:35.357Z,0
2018-11-20T04:14:35.083Z,0
2018-11-20T04:15:35.320Z,0
2018-11-20T04:16:34.789Z,0
2018-11-20T04:17:35.043Z,0
2018-11-20T04:18:34.491Z,0
2018-11-20T04:19:34.729Z,0
2018-11-20T04:20:34.965Z,0
2018-11-20T04:21:35.202Z,0
2018-11-20T04:22:34.935Z,0
2018-11-20T04:23:35.165Z,0
2018-11-20T04:24:35.144Z,0
2018-11-20T04:25:34.873Z,0
2018-11-20T04:26:35.121Z,0
2018-11-20T04:27:34.576Z,0
2018-11-20T04:28:35.079Z,0
2018-11-20T04:29:35.062Z,0
2018-11-20T04:30:35.041Z,0
2018-11-20T04:31:35.019Z,0
2018-11-20T04:32:34.735Z,0
2018-11-20T04:33:34.468Z,0
2018-11-20T04:34:34.443Z,0
2018-11-20T04:35:34.683Z,0
2018-11-20T04:36:34.667Z,0
2018-11-20T04:37:34.902Z,0
2018-11-20T04:38:34.107Z,0
2018-11-20T04:39:34.610Z,0
2018-11-20T04:40:34.596Z,0
2018-11-20T04:41:34.317Z,0
2018-11-20T04:42:34.300Z,0
2018-11-20T04:43:34.784Z,0
2018-11-20T04:44:34.776Z,0
2018-11-20T04:45:34.238Z,0
2018-11-20T04:46:34.735Z,0
2018-11-20T04:47:34.713Z,0
2018-11-20T04:48:34.458Z,0
2018-11-20T04:49:34.161Z,0
2018-11-20T04:50:34.400Z,0
2018-11-20T04:51:34.381Z,0
2018-11-20T04:52:34.355Z,0
2018-11-20T04:53:34.597Z,0
2018-11-20T04:54:34.580Z,0
2018-11-20T04:55:34.557Z,0
2018-11-20T04:56:34.543Z,0
2018-11-20T04:57:34.902Z,0
2018-11-20T04:58:34.509Z,0
2018-11-20T04:59:34.534Z,0
2018-11-20T05:00:34.215Z,0
2018-11-20T05:01:34.205Z,0
2018-11-20T05:02:33.914Z,0
2018-11-20T05:03:34.420Z,0
2018-11-20T05:04:34.131Z,0
2018-11-20T05:05:34.117Z,0
2018-11-20T05:06:34.507Z,0
2018-11-20T05:07:34.082Z,0
2018-11-20T05:08:34.321Z,0
2018-11-20T05:09:34.304Z,0
2018-11-20T05:10:34.021Z,0
2018-11-20T05:11:34.009Z,0
2018-11-20T05:12:33.985Z,0
2018-11-20T05:13:34.642Z,0
2018-11-20T05:14:34.255Z,0
2018-11-20T05:15:33.931Z,0
2018-11-20T05:16:33.914Z,0
2018-11-20T05:17:33.633Z,0
2018-11-20T05:18:34.131Z,0
2018-11-20T05:19:33.849Z,0
2018-11-20T05:20:34.106Z,0
2018-11-20T05:21:33.810Z,0
2018-11-20T05:22:33.802Z,0
2018-11-20T05:23:34.040Z,0
2018-11-20T05:24:33.497Z,0
2018-11-20T05:25:33.739Z,0
2018-11-20T05:26:33.473Z,0
2018-11-20T05:27:33.446Z,0
2018-11-20T05:28:33.687Z,0
2018-11-20T05:29:33.410Z,0
2018-11-20T05:30:33.650Z,0
2018-11-20T05:31:33.891Z,0
2018-11-20T05:32:33.899Z,0
2018-11-20T05:33:33.857Z,0
2018-11-20T05:34:33.577Z,0
2018-11-20T05:35:33.295Z,0
2018-11-20T05:36:33.798Z,0
2018-11-20T05:37:33.530Z,0
2018-11-20T05:38:33.752Z,0
2018-11-20T05:39:33.226Z,0
2018-11-20T05:40:34.479Z,0
2018-11-20T05:41:33.699Z,0
2018-11-20T05:42:33.681Z,0
2018-11-20T05:43:33.671Z,0
2018-11-20T05:44:33.642Z,0
2018-11-20T05:45:33.637Z,0
2018-11-20T05:46:33.614Z,0
2018-11-20T05:47:33.334Z,0
2018-11-20T05:48:33.054Z,0
2018-11-20T05:49:33.290Z,0
2018-11-20T05:50:33.272Z,0
2018-11-20T05:51:32.740Z,0
2018-11-20T05:52:32.981Z,0
2018-11-20T05:53:33.477Z,0
2018-11-20T05:54:33.196Z,0
2018-11-20T05:55:33.184Z,0
2018-11-20T05:56:33.423Z,0
2018-11-20T05:57:33.405Z,0
2018-11-20T05:58:33.130Z,0
2018-11-20T05:59:33.112Z,0
2018-11-20T06:00:33.091Z,0
2018-11-20T06:01:33.069Z,0
2018-11-20T06:02:33.311Z,0
2018-11-20T06:03:33.322Z,0
2018-11-20T06:04:33.276Z,0
2018-11-20T06:05:33.255Z,0
2018-11-20T06:06:33.241Z,0
2018-11-20T06:07:33.216Z,0
2018-11-20T06:08:32.949Z,0
2018-11-20T06:09:32.920Z,0
2018-11-20T06:10:33.161Z,0
2018-11-20T06:11:33.142Z,0
2018-11-20T06:12:32.658Z,0
2018-11-20T06:13:33.112Z,0
2018-11-20T06:14:32.835Z,0
2018-11-20T06:15:32.562Z,0
2018-11-20T06:16:33.058Z,0
2018-11-20T06:17:32.783Z,0
2018-11-20T06:18:32.496Z,0
2018-11-20T06:19:32.747Z,0
2018-11-20T06:20:32.714Z,0
2018-11-20T06:21:32.966Z,0
2018-11-20T06:22:32.935Z,0
2018-11-20T06:23:32.666Z,0
2018-11-20T06:24:32.908Z,0
2018-11-20T06:25:32.635Z,0
2018-11-20T06:26:32.605Z,0
2018-11-20T06:27:32.850Z,0
2018-11-20T06:28:32.756Z,0
2018-11-20T06:29:33.041Z,0
2018-11-20T06:30:32.798Z,0
2018-11-20T06:31:32.792Z,0
2018-11-20T06:32:32.764Z,0
2018-11-20T06:33:32.736Z,0
2018-11-20T06:34:32.863Z,0
2018-11-20T06:35:32.451Z,0
2018-11-20T06:36:31.904Z,0
2018-11-20T06:37:32.673Z,0
2018-11-20T06:38:32.391Z,0
2018-11-20T06:39:32.624Z,0
2018-11-20T06:40:32.663Z,0
2018-11-20T06:41:33.136Z,0
2018-11-20T06:42:32.579Z,0
2018-11-20T06:43:32.294Z,0
2018-11-20T06:44:32.024Z,0
2018-11-20T06:45:32.005Z,0
2018-11-20T06:46:32.243Z,0
2018-11-20T06:47:32.612Z,0
2018-11-20T06:48:32.460Z,5
2018-11-20T06:49:31.931Z,5
2018-11-20T06:50:32.422Z,5
2018-11-20T06:51:32.407Z,5
2018-11-20T06:52:32.394Z,5
2018-11-20T06:53:33.099Z,5
2018-11-20T06:54:32.346Z,5
2018-11-20T06:55:32.079Z,5
2018-11-20T06:56:32.051Z,5
2018-11-20T06:57:32.795Z,5
2018-11-20T06:58:32.018Z,5
2018-11-20T06:59:32.258Z,5
2018-11-20T07:00:32.245Z,5
2018-11-20T07:01:32.319Z,5
2018-11-20T07:02:32.204Z,10
2018-11-20T07:03:32.189Z,10
2018-11-20T07:04:32.169Z,10
2018-11-20T07:05:32.148Z,10
2018-11-20T07:06:32.125Z,10
2018-11-20T07:07:33.568Z,15
2018-11-20T07:08:32.729Z,15
2018-11-20T07:09:32.079Z,15
2018-11-20T07:10:31.542Z,15
2018-11-20T07:11:31.783Z,15
2018-11-20T07:12:31.504Z,20
2018-11-20T07:13:31.484Z,20
2018-11-20T07:14:31.209Z,15
2018-11-20T07:15:32.869Z,15
2018-11-20T07:16:32.520Z,20
2018-11-20T07:17:31.667Z,25
2018-11-20T07:18:31.398Z,15
2018-11-20T07:19:31.898Z,25
2018-11-20T07:20:31.357Z,20
2018-11-20T07:21:31.588Z,20
2018-11-20T07:22:31.802Z,20
2018-11-20T07:23:31.570Z,20
2018-11-20T07:24:31.399Z,20
2018-11-20T07:25:31.519Z,20
2018-11-20T07:26:31.763Z,20
2018-11-20T07:27:31.485Z,25
2018-11-20T07:28:31.779Z,25
2018-11-20T07:29:31.660Z,25
2018-11-20T07:30:31.691Z,25
2018-11-20T07:31:31.733Z,25
2018-11-20T07:32:31.650Z,25
2018-11-20T07:33:31.381Z,25
2018-11-20T07:34:31.614Z,25
2018-11-20T07:35:31.347Z,25
2018-11-20T07:36:32.193Z,25
2018-11-20T07:37:33.076Z,25
2018-11-20T07:38:31.549Z,30
2018-11-20T07:39:31.265Z,35
2018-11-20T07:40:31.251Z,35
2018-11-20T07:41:30.969Z,35
2018-11-20T07:42:31.467Z,40
2018-11-20T07:43:31.888Z,40
2018-11-20T07:44:31.076Z,35
2018-11-20T07:45:31.038Z,45
2018-11-20T07:46:31.190Z,45
2018-11-20T07:47:30.852Z,40
2018-11-20T07:48:30.835Z,45
2018-11-20T07:49:31.336Z,45
2018-11-20T07:50:30.802Z,35
2018-11-20T07:51:31.074Z,40
2018-11-20T07:52:31.028Z,45
2018-11-20T07:53:31.016Z,50
2018-11-20T07:54:30.737Z,50
2018-11-20T07:55:32.139Z,45
2018-11-20T07:56:31.774Z,40
2018-11-20T07:57:30.681Z,40
2018-11-20T07:58:31.172Z,40
2018-11-20T07:59:30.896Z,50
2018-11-20T08:00:31.145Z,45
2018-11-20T08:01:31.120Z,45
2018-11-20T08:02:31.182Z,50
2018-11-20T08:03:30.819Z,45
2018-11-20T08:04:31.062Z,45
2018-11-20T08:05:30.536Z,45
2018-11-20T08:06:30.791Z,45
2018-11-20T08:07:30.749Z,55
2018-11-20T08:08:31.123Z,55
2018-11-20T08:09:30.981Z,50
2018-11-20T08:10:31.040Z,40
2018-11-20T08:11:30.938Z,40
2018-11-20T08:12:30.933Z,45
2018-11-20T08:13:30.390Z,55
2018-11-20T08:14:30.363Z,50
2018-11-20T08:15:31.311Z,50
2018-11-20T08:16:30.623Z,45
2018-11-20T08:17:30.822Z,50
2018-11-20T08:18:30.808Z,55
2018-11-20T08:19:30.530Z,60
2018-11-20T08:20:30.766Z,55
2018-11-20T08:21:30.753Z,60
2018-11-20T08:22:30.267Z,60
2018-11-20T08:23:30.200Z,60
2018-11-20T08:24:30.452Z,60
2018-11-20T08:25:31.591Z,65
2018-11-20T08:26:32.612Z,65
2018-11-20T08:27:30.658Z,60
2018-11-20T08:28:30.625Z,60
2018-11-20T08:29:30.350Z,65
2018-11-20T08:30:30.074Z,70
2018-11-20T08:31:30.571Z,80
2018-11-20T08:32:30.551Z,70
2018-11-20T08:33:30.314Z,80
2018-11-20T08:34:30.013Z,90
2018-11-20T08:35:30.846Z,85
2018-11-20T08:36:30.231Z,80
2018-11-20T08:37:30.216Z,75
2018-11-20T08:38:30.189Z,70
2018-11-20T08:39:30.431Z,75
2018-11-20T08:40:30.149Z,75
2018-11-20T08:41:29.878Z,80
2018-11-20T08:42:30.777Z,80
2018-11-20T08:43:30.100Z,70
2018-11-20T08:44:30.245Z,75
2018-11-20T08:45:30.058Z,70
2018-11-20T08:46:30.048Z,75
2018-11-20T08:47:30.295Z,90
2018-11-20T08:48:30.543Z,75
2018-11-20T08:49:30.252Z,75
2018-11-20T08:50:29.967Z,70
2018-11-20T08:51:29.436Z,75
2018-11-20T08:52:30.197Z,70
2018-11-20T08:53:29.948Z,75
2018-11-20T08:54:29.636Z,80
2018-11-20T08:55:30.140Z,75
2018-11-20T08:56:30.122Z,70
2018-11-20T08:57:30.117Z,70
2018-11-20T08:58:30.084Z,65
2018-11-20T08:59:29.805Z,70
2018-11-20T09:00:30.047Z,85
2018-11-20T09:01:29.779Z,75
2018-11-20T09:02:30.337Z,75
2018-11-20T09:03:30.134Z,70
2018-11-20T09:04:29.462Z,65
2018-11-20T09:05:29.975Z,75
2018-11-20T09:06:29.431Z,90
2018-11-20T09:07:29.931Z,95
2018-11-20T09:08:29.644Z,90
2018-11-20T09:09:29.892Z,100
2018-11-20T09:10:30.588Z,90
2018-11-20T09:11:29.862Z,100
2018-11-20T09:12:29.314Z,85
2018-11-20T09:13:29.558Z,65
2018-11-20T09:14:29.550Z,65
2018-11-20T09:15:29.786Z,75
2018-11-20T09:16:29.504Z,70
2018-11-20T09:17:29.232Z,75
2018-11-20T09:18:29.729Z,75
2018-11-20T09:19:29.706Z,70
2018-11-20T09:20:30.414Z,55
2018-11-20T09:21:29.669Z,50
2018-11-20T09:22:29.660Z,45
2018-11-20T09:23:29.657Z,40
2018-11-20T09:24:29.101Z,35
2018-11-20T09:25:29.646Z,35
2018-11-20T09:26:29.590Z,40
2018-11-20T09:27:29.569Z,35
2018-11-20T09:28:29.287Z,40
2018-11-20T09:29:29.534Z,45
2018-11-20T09:30:28.995Z,40
2018-11-20T09:31:29.495Z,45
2018-11-20T09:32:29.489Z,40
2018-11-20T09:33:29.204Z,35
2018-11-20T09:34:29.682Z,35
2018-11-20T09:35:29.842Z,40
2018-11-20T09:36:29.416Z,35
2018-11-20T09:37:29.819Z,35
2018-11-20T09:38:29.363Z,35
2018-11-20T09:39:29.107Z,35
2018-11-20T09:40:29.146Z,30
2018-11-20T09:41:28.809Z,35
2018-11-20T09:42:29.050Z,35
2018-11-20T09:43:29.296Z,40
2018-11-20T09:44:29.009Z,40
2018-11-20T09:45:28.993Z,40
2018-11-20T09:46:29.068Z,40
2018-11-20T09:47:28.953Z,40
2018-11-20T09:48:29.187Z,40
2018-11-20T09:49:28.918Z,35
2018-11-20T09:50:28.902Z,40
2018-11-20T09:51:29.145Z,35
2018-11-20T09:52:28.930Z,35
2018-11-20T09:53:28.839Z,35
2018-11-20T09:54:28.807Z,35
2018-11-20T09:55:28.816Z,40
2018-11-20T09:56:28.796Z,35
2018-11-20T09:57:28.252Z,35
2018-11-20T09:58:29.046Z,40
2018-11-20T09:59:29.325Z,40
2018-11-20T10:00:28.470Z,30
2018-11-20T10:01:28.454Z,35
2018-11-20T10:02:28.686Z,35
2018-11-20T10:03:28.698Z,35
2018-11-20T10:04:28.907Z,35
2018-11-20T10:05:28.112Z,25
2018-11-20T10:06:28.618Z,25
2018-11-20T10:07:28.781Z,20
2018-11-20T10:08:28.325Z,25
2018-11-20T10:09:28.561Z,25
2018-11-20T10:10:28.307Z,30
2018-11-20T10:11:28.515Z,25
2018-11-20T10:12:28.506Z,20
2018-11-20T10:13:28.482Z,25
2018-11-20T10:14:28.539Z,25
2018-11-20T10:15:28.390Z,30
2018-11-20T10:16:28.433Z,30
2018-11-20T10:17:28.671Z,30
2018-11-20T10:18:28.592Z,25
2018-11-20T10:19:28.113Z,20
2018-11-20T10:20:28.618Z,20
2018-11-20T10:21:28.689Z,20
2018-11-20T10:22:28.372Z,25
2018-11-20T10:23:28.477Z,25
2018-11-20T10:24:28.547Z,25
2018-11-20T10:25:29.196Z,25
2018-11-20T10:26:28.174Z,25
2018-11-20T10:27:28.249Z,25
2018-11-20T10:28:28.475Z,25
2018-11-20T10:29:27.936Z,25
2018-11-20T10:30:28.187Z,25
2018-11-20T10:31:27.904Z,30
2018-11-20T10:32:28.173Z,30
2018-11-20T10:33:28.133Z,30
2018-11-20T10:34:28.067Z,35
2018-11-20T10:35:28.427Z,30
2018-11-20T10:36:28.328Z,25
2018-11-20T10:37:28.059Z,30
2018-11-20T10:38:28.299Z,40
2018-11-20T10:39:28.272Z,35
2018-11-20T10:40:28.418Z,40
2018-11-20T10:41:28.241Z,35
2018-11-20T10:42:27.715Z,40
2018-11-20T10:43:28.236Z,45
2018-11-20T10:44:27.944Z,45
2018-11-20T10:45:28.125Z,55
2018-11-20T10:46:28.749Z,45
2018-11-20T10:47:27.878Z,45
2018-11-20T10:48:28.117Z,55
2018-11-20T10:49:28.105Z,50
2018-11-20T10:50:28.081Z,60
2018-11-20T10:51:27.805Z,65
2018-11-20T10:52:28.250Z,75
2018-11-20T10:53:28.035Z,80
2018-11-20T10:54:27.747Z,80
2018-11-20T10:55:27.477Z,80
2018-11-20T10:56:27.453Z,80
2018-11-20T10:57:27.960Z,95
2018-11-20T10:58:27.934Z,100
2018-11-20T10:59:27.806Z,100
2018-11-20T11:00:27.908Z,105
2018-11-20T11:01:27.917Z,105
2018-11-20T11:02:27.861Z,110
2018-11-20T11:03:27.328Z,115
2018-11-20T11:04:28.126Z,120
2018-11-20T11:05:27.812Z,120
2018-11-20T11:06:28.103Z,125
2018-11-20T11:07:28.178Z,125
2018-11-20T11:08:28.000Z,125
2018-11-20T11:09:27.737Z,125
2018-11-20T11:10:27.725Z,130
2018-11-20T11:11:28.044Z,130
2018-11-20T11:12:27.829Z,125
2018-11-20T11:13:27.453Z,120
2018-11-20T11:14:27.793Z,110
2018-11-20T11:15:27.627Z,100
2018-11-20T11:16:27.347Z,105
2018-11-20T11:17:27.340Z,115
2018-11-20T11:18:27.700Z,110
2018-11-20T11:19:27.557Z,100
2018-11-20T11:20:27.884Z,120
2018-11-20T11:21:27.529Z,130
2018-11-20T11:22:27.503Z,130
2018-11-20T11:23:27.230Z,115
2018-11-20T11:24:27.471Z,115
2018-11-20T11:25:27.447Z,115
2018-11-20T11:26:27.440Z,110
2018-11-20T11:27:27.166Z,110
2018-11-20T11:28:26.921Z,110
2018-11-20T11:29:26.863Z,110
2018-11-20T11:30:26.873Z,110
2018-11-20T11:31:27.344Z,130
2018-11-20T11:32:27.091Z,145
2018-11-20T11:33:33.466Z,160
2018-11-20T11:34:26.776Z,170
2018-11-20T11:35:27.282Z,175
2018-11-20T11:36:27.291Z,180
2018-11-20T11:37:26.823Z,175
2018-11-20T11:38:27.426Z,160
2018-11-20T11:39:27.221Z,150
2018-11-20T11:40:27.193Z,145
2018-11-20T11:41:27.169Z,150
2018-11-20T11:42:27.158Z,150
2018-11-20T11:43:30.664Z,130
2018-11-20T11:44:26.858Z,110
2018-11-20T11:45:26.847Z,100
2018-11-20T11:46:26.820Z,90
2018-11-20T11:47:26.812Z,85
2018-11-20T11:48:26.787Z,80
2018-11-20T11:49:26.514Z,85
2018-11-20T11:50:26.497Z,85
2018-11-20T11:51:30.351Z,90
2018-11-20T11:52:30.189Z,90
2018-11-20T11:53:26.700Z,90
2018-11-20T11:54:26.678Z,95
2018-11-20T11:55:26.928Z,100
2018-11-20T11:56:26.913Z,105
2018-11-20T11:57:26.888Z,110
2018-11-20T11:58:28.113Z,115
2018-11-20T11:59:26.609Z,115
2018-11-20T12:00:26.580Z,120
2018-11-20T12:01:26.569Z,120
2018-11-20T12:03:26.784Z,140
2018-11-20T12:04:26.509Z,160
2018-11-20T12:05:26.748Z,180
2018-11-20T12:06:26.738Z,185
2018-11-20T12:07:26.710Z,170
2018-11-20T12:08:26.711Z,155
2018-11-20T12:09:27.028Z,145
2018-11-20T12:10:26.664Z,140
2018-11-20T12:11:26.653Z,145
2018-11-20T12:12:26.110Z,155
2018-11-20T12:13:26.324Z,160
2018-11-20T12:14:26.593Z,150
2018-11-20T12:15:26.573Z,150
2018-11-20T12:16:26.568Z,155
2018-11-20T12:17:26.017Z,175
2018-11-20T12:18:26.518Z,180
2018-11-20T12:19:26.528Z,165
2018-11-20T12:20:26.481Z,155
2018-11-20T12:21:26.462Z,130
2018-11-20T12:22:26.449Z,130
2018-11-20T12:23:26.428Z,150
2018-11-20T12:24:27.284Z,155
2018-11-20T12:25:26.398Z,160
2018-11-20T12:26:26.379Z,180
2018-11-20T12:27:29.305Z,185
2018-11-20T12:28:26.422Z,195
2018-11-20T12:29:26.695Z,200
2018-11-20T12:30:26.320Z,195
2018-11-20T12:31:26.316Z,205
2018-11-20T12:32:28.881Z,255
2018-11-20T12:33:26.017Z,230
2018-11-20T12:34:28.495Z,230
2018-11-20T12:35:40.811Z,260
2018-11-20T12:36:26.215Z,285
2018-11-20T12:37:29.147Z,290
2018-11-20T12:38:28.966Z,260
2018-11-20T12:39:28.819Z,240
2018-11-20T12:40:26.355Z,260
2018-11-20T12:41:26.631Z,235
2018-11-20T12:42:27.217Z,185
2018-11-20T12:43:27.510Z,135
2018-11-20T12:44:26.267Z,150
2018-11-20T12:45:25.812Z,180
2018-11-20T12:46:26.049Z,155
2018-11-20T12:47:26.986Z,180
2018-11-20T12:48:27.218Z,200
2018-11-20T12:49:30.063Z,200
2018-11-20T12:50:26.210Z,190
2018-11-20T12:51:29.489Z,175
2018-11-20T12:52:28.705Z,170
2018-11-20T12:53:28.554Z,160
2018-11-20T12:54:25.915Z,190
2018-11-20T12:55:25.894Z,150
2018-11-20T12:56:25.881Z,125
2018-11-20T12:57:25.865Z,115
2018-11-20T12:58:25.851Z,105
2018-11-20T12:59:25.825Z,100
2018-11-20T13:00:25.815Z,90
2018-11-20T13:01:25.795Z,85
2018-11-20T13:02:25.519Z,70
2018-11-20T13:03:25.755Z,60
2018-11-20T13:04:25.492Z,60
2018-11-20T13:05:25.723Z,60
2018-11-20T13:06:25.714Z,60
2018-11-20T13:07:27.672Z,60
2018-11-20T13:08:30.968Z,55
2018-11-20T13:09:25.686Z,55
2018-11-20T13:10:25.483Z,45
2018-11-20T13:11:25.651Z,45
2018-11-20T13:12:25.618Z,50
2018-11-20T13:13:27.617Z,55
2018-11-20T13:14:29.549Z,50
2018-11-20T13:15:26.161Z,50
2018-11-20T13:16:25.033Z,55
2018-11-20T13:17:25.642Z,55
2018-11-20T13:18:25.519Z,55
2018-11-20T13:19:27.341Z,55
2018-11-20T13:20:25.224Z,50
2018-11-20T13:21:25.215Z,50
2018-11-20T13:22:25.462Z,60
2018-11-20T13:23:29.338Z,55
2018-11-20T13:24:25.411Z,50
2018-11-20T13:25:25.135Z,45
2018-11-20T13:26:24.862Z,45
2018-11-20T13:27:25.096Z,45
2018-11-20T13:28:25.364Z,40
2018-11-20T13:29:25.328Z,35
2018-11-20T13:30:25.305Z,35
2018-11-20T13:31:25.303Z,30
2018-11-20T13:32:25.285Z,25
2018-11-20T13:33:28.321Z,25
2018-11-20T13:34:33.883Z,25
2018-11-20T13:35:25.224Z,30
2018-11-20T13:36:25.253Z,30
2018-11-20T13:37:25.617Z,35
2018-11-20T13:38:25.184Z,30
2018-11-20T13:39:25.166Z,35
2018-11-20T13:40:24.904Z,35
2018-11-20T13:41:25.121Z,40
2018-11-20T13:42:25.112Z,30
2018-11-20T13:43:25.089Z,30
2018-11-20T13:44:25.072Z,30
2018-11-20T13:45:28.225Z,30
2018-11-20T13:46:26.438Z,30
2018-11-20T13:47:24.789Z,25
2018-11-20T13:48:25.004Z,30
2018-11-20T13:49:24.986Z,30
2018-11-20T13:50:24.960Z,30
2018-11-20T13:51:24.949Z,35
2018-11-20T13:52:24.679Z,35
2018-11-20T13:53:24.927Z,40
2018-11-20T13:54:24.389Z,45
2018-11-20T13:55:29.455Z,35
2018-11-20T13:56:24.862Z,40
2018-11-20T13:57:24.850Z,45
2018-11-20T13:58:24.841Z,40
2018-11-20T13:59:24.564Z,35
2018-11-20T14:00:24.814Z,30
2018-11-20T14:01:24.524Z,30
2018-11-20T14:02:24.780Z,25
2018-11-20T14:03:24.750Z,30
2018-11-20T14:04:24.734Z,35
2018-11-20T14:05:24.720Z,30
2018-11-20T14:06:24.441Z,25
2018-11-20T14:07:24.673Z,25
2018-11-20T14:08:24.406Z,25
2018-11-20T14:09:24.129Z,25
2018-11-20T14:10:24.362Z,25
2018-11-20T14:11:24.608Z,25
2018-11-20T14:12:24.600Z,20
2018-11-20T14:13:24.572Z,20
2018-11-20T14:14:24.346Z,20
2018-11-20T14:15:24.537Z,20
2018-11-20T14:16:24.266Z,15
2018-11-20T14:17:24.244Z,15
2018-11-20T14:18:24.536Z,15
2018-11-20T14:19:28.077Z,20
2018-11-20T14:20:24.459Z,20
2018-11-20T14:21:23.919Z,15
2018-11-20T14:22:24.428Z,15
2018-11-20T14:23:24.401Z,10
2018-11-20T14:24:24.390Z,15
2018-11-20T14:25:24.366Z,15
2018-11-20T14:26:24.091Z,10
2018-11-20T14:27:24.332Z,10